Hauptseite
METAR-TAF:

METAR-TAF

Flughäfen :

Xi’an, China

Flughafen Xi’an-Xianyang

Breite: 34-26N, Länge: 108-45E, Höhe: 479 m

Beobachtung

Neuester Wetterbericht von vor 49 Minuten, um 23:00 UTC
Wind 6 kt aus Nord/Nordost
Temperatur 25°C
Luftfeuchtigkeit 74%
Luftdruck 1006 hPa
Sichtweite: 7000 m

METAR: ZLXY 162300Z 03003MPS 7000 NSC 25/20 Q1006 NOSIG

Zeit: 07:49 (23:49 UTC)

Prognose

Neuester Wetterbericht von vor 4 Stunden und 39 Minuten, um 19:10 UTC
Gültige Prognose vom 17 um 00 UTC bis 17 um 24 UTC
Wind 6 kt aus Ost/Nordost
Sichtweite: 4000 m
trockener Dunst

TAF: ZLXY 161910Z 1700/1724 06003MPS 4000 HZ NSC TX37/1708Z TN24/1721Z

Wetterbeobachtungen und Prognosen von mehr als 4000 Flughäfen (METAR und TAF Bericht).

Die verfügbaren Stationen werden durch gelbe und rote Markierungen auf der Karte dargestellt.

Führen Sie die Maus auf sie, um den Namen der Station zu sehen.

Darauf klicken, um die Beobachtung von Wetterbeobachtungen und Prognosen zu sehen.

Um die Karte zu ändern : klicken Sie auf den grünen Tasten mit einem schwarzen Kreuz Zum Vergrößern, auf den grünen Button mit einem Gedankenstrich zu verkleinern, oder auf die grünen Pfeile für benachbarte Karten.


METAR-TAF: